Time;durP1;ratioP1;P1;durP2;ratioP2;P2;SDS_P1;SDS_P2;PMS_P1;PMS_P2;Temp;Humidity;BMP_temperature;BMP_pressure;BME280_temperature;BME280_humidity;BME280_pressure;Samples;Min_cycle;Max_cycle;Signal;HPM_P1;HPM_P2
2022/12/05 00:01:25;;;;;;;46.05;26.50;;;;;;;2.73;100.00;101553.44;5071184;28;20055;-69
2022/12/05 00:03:53;;;;;;;45.17;26.25;;;;;;;2.72;100.00;101551.78;5072015;28;20037;-68
2022/12/05 00:06:19;;;;;;;46.10;26.63;;;;;;;2.76;100.00;101557.66;5072926;28;20041;-69
2022/12/05 00:08:45;;;;;;;46.28;27.25;;;;;;;2.75;100.00;101558.63;5073127;28;20483;-69
2022/12/05 00:11:17;;;;;;;48.20;28.02;;;;;;;2.77;100.00;101562.00;5071523;28;20058;-69
2022/12/05 00:13:44;;;;;;;46.03;26.38;;;;;;;2.76;100.00;101563.00;5082178;28;20585;-69
2022/12/05 00:16:11;;;;;;;46.47;27.75;;;;;;;2.73;100.00;101556.13;5085163;28;20036;-69
2022/12/05 00:18:37;;;;;;;48.15;28.73;;;;;;;2.75;100.00;101558.63;5093317;28;20085;-69
2022/12/05 00:21:03;;;;;;;46.90;27.30;;;;;;;2.76;100.00;101561.19;5093210;28;20020;-69
2022/12/05 00:23:29;;;;;;;51.17;29.48;;;;;;;2.75;100.00;101570.19;5083771;28;20059;-69
2022/12/05 00:25:54;;;;;;;48.72;28.45;;;;;;;2.77;100.00;101562.00;5071496;28;20079;-68
2022/12/05 00:28:19;;;;;;;49.15;28.70;;;;;;;2.76;100.00;101561.19;5091647;28;20039;-69
2022/12/05 00:30:45;;;;;;;48.78;28.15;;;;;;;2.77;100.00;101562.00;5093218;28;20024;-69
2022/12/05 00:33:10;;;;;;;46.92;27.88;;;;;;;2.77;100.00;101551.31;5086583;28;20085;-69
2022/12/05 00:35:35;;;;;;;48.88;29.00;;;;;;;2.77;100.00;101556.66;5072780;28;20396;-69
2022/12/05 00:38:01;;;;;;;48.45;28.92;;;;;;;2.78;100.00;101558.34;5073637;28;20020;-69
2022/12/05 00:40:26;;;;;;;47.20;28.50;;;;;;;2.77;100.00;101543.28;5070783;28;20166;-69
2022/12/05 00:42:51;;;;;;;44.50;27.27;;;;;;;2.78;100.00;101544.97;5070861;28;20112;-68
2022/12/05 00:45:16;;;;;;;46.45;28.33;;;;;;;2.74;100.00;101546.28;5096117;28;20084;-69
2022/12/05 00:47:42;;;;;;;43.63;27.80;;;;;;;2.77;100.00;101551.31;5096930;28;20020;-69
2022/12/05 00:50:07;;;;;;;46.25;29.45;;;;;;;2.76;100.00;101545.13;5088468;28;20033;-69
2022/12/05 00:52:32;;;;;;;49.03;29.83;;;;;;;2.80;100.00;101548.31;5071287;28;20123;-69
2022/12/05 00:54:58;;;;;;;48.50;29.13;;;;;;;2.79;100.00;101547.50;5071333;28;20028;-69
2022/12/05 00:57:23;;;;;;;49.30;29.40;;;;;;;2.77;100.00;101548.63;5060564;28;20527;-69
2022/12/05 00:59:52;;;;;;;48.17;29.30;;;;;;;2.79;100.00;101554.66;5055296;28;20036;-69
2022/12/05 01:02:17;;;;;;;46.28;27.85;;;;;;;2.78;100.00;101547.66;5090673;28;20035;-69
2022/12/05 01:04:42;;;;;;;49.08;29.30;;;;;;;2.77;100.00;101543.28;5072289;28;20029;-69
2022/12/05 01:07:08;;;;;;;47.13;29.27;;;;;;;2.83;100.00;101548.00;5071816;28;20048;-69
2022/12/05 01:10:04;;;;;;;46.75;30.05;;;;;;;2.88;100.00;101550.22;5076201;28;20044;-69
2022/12/05 01:12:29;;;;;;;48.20;29.02;;;;;;;2.88;100.00;101559.06;5051776;28;20100;-69
2022/12/05 01:14:55;;;;;;;45.80;28.75;;;;;;;2.87;100.00;101552.06;5067839;28;20039;-69
2022/12/05 01:17:20;;;;;;;48.00;29.55;;;;;;;2.88;100.00;101558.22;5072368;28;20044;-69
2022/12/05 01:19:45;;;;;;;48.60;29.38;;;;;;;2.89;100.00;101560.75;5072434;28;20067;-69
2022/12/05 01:22:10;;;;;;;49.30;29.02;;;;;;;2.89;100.00;101560.75;5072358;28;20452;-69
2022/12/05 01:24:36;;;;;;;49.30;29.40;;;;;;;2.91;100.00;101561.41;5070321;28;20028;-69
2022/12/05 01:27:01;;;;;;;46.95;29.73;;;;;;;2.92;100.00;101565.78;5069721;28;20464;-69
2022/12/05 01:29:27;;;;;;;46.67;29.00;;;;;;;2.94;100.00;101568.28;5075657;28;20036;-69
2022/12/05 01:31:53;;;;;;;46.90;29.00;;;;;;;2.98;100.00;101567.00;5074315;28;20068;-69
2022/12/05 01:34:19;;;;;;;53.38;30.63;;;;;;;2.98;100.00;101570.50;5076276;28;20111;-69
2022/12/05 01:36:44;;;;;;;48.08;29.13;;;;;;;2.98;100.00;101570.50;5075984;28;20108;-69
2022/12/05 01:39:11;;;;;;;46.70;29.65;;;;;;;2.99;100.00;101572.19;5076157;28;20036;-69
2022/12/05 01:41:42;;;;;;;44.95;28.00;;;;;;;3.00;100.00;101568.53;5072605;28;20028;-68
2022/12/05 01:44:26;;;;;;;49.05;28.90;;;;;;;3.04;100.00;101566.34;5077085;28;20086;-69
2022/12/05 01:46:53;;;;;;;48.65;29.58;;;;;;;3.02;100.00;101576.38;5095486;28;20032;-69
2022/12/05 01:49:24;;;;;;;46.42;28.17;;;;;;;3.01;100.00;101578.19;5095893;28;20089;-69
2022/12/05 01:52:00;;;;;;;46.60;28.55;;;;;;;3.04;100.00;101573.56;5080604;28;20135;-69
2022/12/05 01:54:44;;;;;;;48.67;29.80;;;;;;;3.06;100.00;101579.56;5078854;28;20032;-69
2022/12/05 01:57:11;;;;;;;44.95;29.15;;;;;;;3.01;100.00;101586.22;5074629;28;20035;-69
2022/12/05 01:59:45;;;;;;;49.15;30.05;;;;;;;3.01;100.00;101586.22;5074721;28;20037;-69
2022/12/05 02:02:11;;;;;;;48.72;29.55;;;;;;;3.00;100.00;101589.91;5070686;28;20116;-69
2022/12/05 02:04:47;;;;;;;44.33;28.25;;;;;;;2.99;100.00;101590.91;5075226;28;20111;-69
2022/12/05 02:07:13;;;;;;;48.42;28.85;;;;;;;2.99;100.00;101588.22;5075537;28;20052;-69
2022/12/05 02:09:39;;;;;;;50.42;29.08;;;;;;;2.99;100.00;101593.56;5077291;28;20380;-69
2022/12/05 02:12:04;;;;;;;45.70;28.52;;;;;;;3.01;100.00;101591.56;5073805;28;20038;-69
2022/12/05 02:14:43;;;;;;;46.08;28.77;;;;;;;3.01;100.00;101594.25;5075276;28;20029;-69
2022/12/05 02:17:41;;;;;;;46.83;29.00;;;;;;;3.04;100.00;101592.28;5060573;28;20032;-69
2022/12/05 02:20:17;;;;;;;49.42;28.20;;;;;;;3.08;100.00;101585.59;5053742;28;20055;-69
2022/12/05 02:22:57;;;;;;;47.60;29.02;;;;;;;3.10;100.00;101586.28;5072519;28;20450;-69
2022/12/05 02:25:56;;;;;;;49.05;29.77;;;;;;;3.12;100.00;101589.63;5079976;28;20518;-69
2022/12/05 02:28:32;;;;;;;43.80;27.42;;;;;;;3.11;100.00;101587.94;5068636;28;20028;-69
2022/12/05 02:31:15;;;;;;;48.33;29.35;;;;;;;3.12;100.00;101582.44;5072979;28;20028;-69
2022/12/05 02:34:04;;;;;;;46.97;27.88;;;;;;;3.16;100.00;101577.63;5065648;28;20037;-69
2022/12/05 02:36:43;;;;;;;50.13;29.02;;;;;;;3.18;100.00;101580.97;5071016;28;20063;-69
2022/12/05 02:39:36;;;;;;;46.28;28.67;;;;;;;3.16;100.00;101577.63;5072292;28;20206;-69
2022/12/05 02:42:23;;;;;;;47.20;29.88;;;;;;;3.14;100.00;101579.59;5075074;28;20501;-69
2022/12/05 02:45:02;;;;;;;46.35;28.75;;;;;;;3.16;100.00;101572.28;5074785;28;20068;-69
2022/12/05 02:47:32;;;;;;;49.75;29.17;;;;;;;3.14;100.00;101577.78;5074007;28;20028;-69
2022/12/05 02:49:58;;;;;;;49.83;30.23;;;;;;;3.13;100.00;101572.59;5073851;28;20479;-69
2022/12/05 02:52:24;;;;;;;49.10;28.48;;;;;;;3.14;100.00;101580.47;5074717;28;20071;-69
2022/12/05 02:54:52;;;;;;;45.83;28.17;;;;;;;3.14;100.00;101584.97;5074528;28;20033;-69
2022/12/05 02:57:20;;;;;;;45.55;29.05;;;;;;;3.13;100.00;101584.13;5073236;28;20032;-69
2022/12/05 02:59:45;;;;;;;47.15;28.67;;;;;;;3.14;100.00;101579.59;5054161;28;20037;-69
2022/12/05 03:02:32;;;;;;;44.08;28.80;;;;;;;3.16;100.00;101586.47;5071183;28;20040;-69
2022/12/05 03:05:13;;;;;;;50.95;28.08;;;;;;;3.14;100.00;101584.97;5054883;28;20060;-69
2022/12/05 03:07:42;;;;;;;50.33;30.27;;;;;;;3.14;100.00;101596.50;5055071;28;20091;-69
2022/12/05 03:10:07;;;;;;;46.50;28.27;;;;;;;3.15;100.00;101589.31;5074459;28;20032;-69
2022/12/05 03:12:41;;;;;;;49.58;30.10;;;;;;;3.19;100.00;101588.84;5074235;28;20024;-69
2022/12/05 03:15:16;;;;;;;44.55;28.52;;;;;;;3.18;100.00;101584.47;5074449;28;20040;-69
2022/12/05 03:17:52;;;;;;;47.53;28.77;;;;;;;3.14;100.00;101577.78;5071434;28;20123;-69
2022/12/05 03:20:33;;;;;;;49.65;29.60;;;;;;;3.17;100.00;101585.50;5073514;28;20035;-70
2022/12/05 03:23:05;;;;;;;48.80;29.27;;;;;;;3.16;100.00;101585.66;5074213;28;20039;-69
2022/12/05 03:26:02;;;;;;;50.90;29.42;;;;;;;3.17;100.00;101577.47;5074092;28;20105;-69
2022/12/05 03:28:47;;;;;;;47.97;27.58;;;;;;;3.18;100.00;101580.97;5073460;28;20377;-69
2022/12/05 03:31:19;;;;;;;50.72;30.33;;;;;;;3.17;100.00;101572.13;5074141;28;20025;-69
2022/12/05 03:33:49;;;;;;;47.65;29.42;;;;;;;3.17;100.00;101573.94;5074031;28;20032;-69
2022/12/05 03:36:21;;;;;;;54.58;29.52;;;;;;;3.17;100.00;101576.63;5056116;28;20162;-69
2022/12/05 03:38:52;;;;;;;47.63;28.42;;;;;;;3.19;100.00;101580.81;5053554;28;20472;-69
2022/12/05 03:41:33;;;;;;;47.28;29.55;;;;;;;3.23;100.00;101578.69;5053688;28;20380;-70
2022/12/05 03:44:11;;;;;;;45.67;29.00;;;;;;;3.22;100.00;101577.00;5053705;28;20472;-69
2022/12/05 03:46:38;;;;;;;47.15;28.08;;;;;;;3.20;100.00;101576.28;5053509;28;20052;-70
2022/12/05 03:49:19;;;;;;;47.90;28.05;;;;;;;3.21;100.00;101579.84;5066442;28;20024;-69
2022/12/05 03:51:52;;;;;;;53.83;29.48;;;;;;;3.21;100.00;101577.16;5075276;28;20054;-69
2022/12/05 03:54:28;;;;;;;48.15;29.42;;;;;;;3.19;100.00;101572.78;5088630;28;20040;-69
2022/12/05 03:57:00;;;;;;;47.75;28.15;;;;;;;3.16;100.00;101572.28;5071068;28;20035;-69
2022/12/05 03:59:34;;;;;;;;;;;;;;;3.26;100.00;101574.84;5072079;28;20533;-69
2022/12/05 04:02:09;;;;;;;46.88;25.77;;;;;;;3.19;100.00;101575.47;5070926;28;19912;-69
2022/12/05 04:04:41;;;;;;;48.63;28.50;;;;;;;3.22;100.00;101577.00;5073124;28;20450;-69
2022/12/05 04:07:09;;;;;;;46.72;29.70;;;;;;;3.19;100.00;101582.66;5072838;28;20049;-69
2022/12/05 04:09:43;;;;;;;47.45;27.45;;;;;;;3.18;100.00;101580.97;5071411;28;20033;-69
2022/12/05 04:12:16;;;;;;;47.75;28.02;;;;;;;3.18;100.00;101587.16;5060999;28;20033;-69
2022/12/05 04:14:48;;;;;;;47.42;28.00;;;;;;;3.18;100.00;101589.00;5055769;28;20451;-69
2022/12/05 04:17:28;;;;;;;48.70;28.95;;;;;;;3.19;100.00;101588.00;5073178;28;20448;-69
2022/12/05 04:23:02;;;;;;;49.88;27.63;;;;;;;3.24;100.00;101590.22;5051279;28;20590;-69
2022/12/05 04:25:44;;;;;;;47.03;29.83;;;;;;;3.22;100.00;101595.72;5053143;28;20037;-70
2022/12/05 04:28:31;;;;;;;46.47;27.13;;;;;;;3.25;100.00;101592.72;5089687;28;20150;-69
2022/12/05 04:31:10;;;;;;;42.65;26.75;;;;;;;3.23;100.00;101594.72;5056880;28;20094;-69
2022/12/05 04:33:53;;;;;;;42.83;25.73;;;;;;;3.27;100.00;101600.59;5062746;28;20029;-69
2022/12/05 04:36:21;;;;;;;44.35;27.52;;;;;;;3.25;100.00;101595.41;5072994;28;20058;-69
2022/12/05 04:38:52;;;;;;;44.83;27.60;;;;;;;3.24;100.00;101598.25;5070841;28;20097;-69
2022/12/05 04:41:31;;;;;;;45.83;27.00;;;;;;;3.23;100.00;101593.88;5072984;28;20029;-69
2022/12/05 04:44:00;;;;;;;45.05;27.98;;;;;;;3.20;100.00;101592.34;5072745;28;20033;-69
2022/12/05 04:46:25;;;;;;;45.58;29.27;;;;;;;3.18;100.00;101607.72;5072771;28;20025;-70
2022/12/05 04:48:56;;;;;;;44.13;29.27;;;;;;;3.17;100.00;101601.53;5069343;28;20112;-69
2022/12/05 04:51:25;;;;;;;45.72;28.77;;;;;;;3.21;100.00;101609.25;5072428;28;20491;-69
2022/12/05 04:53:55;;;;;;;46.13;28.38;;;;;;;3.16;100.00;101596.34;5072360;28;20029;-69
2022/12/05 04:56:25;;;;;;;47.05;27.88;;;;;;;3.15;100.00;101605.38;5072736;28;20036;-69
2022/12/05 04:58:51;;;;;;;45.60;27.92;;;;;;;3.18;100.00;101602.38;5070730;28;20028;-69
2022/12/05 05:01:22;;;;;;;45.97;28.50;;;;;;;3.19;100.00;101601.38;5070396;28;20039;-69
2022/12/05 05:04:08;;;;;;;;;;;;;;;3.30;100.00;101593.09;5056178;28;20033;-69
2022/12/05 05:06:38;;;;;;;43.88;25.95;;;;;;;3.26;100.00;101598.91;5084145;28;19927;-70
2022/12/05 05:09:03;;;;;;;42.42;26.50;;;;;;;3.25;100.00;101598.09;5077205;28;20041;-68
2022/12/05 05:11:32;;;;;;;45.35;27.92;;;;;;;3.25;100.00;101603.44;5075103;28;20088;-67
2022/12/05 05:13:58;;;;;;;45.30;27.92;;;;;;;3.26;100.00;101602.44;5092602;28;20032;-67
2022/12/05 05:16:30;;;;;;;44.53;27.60;;;;;;;3.28;100.00;101603.13;5093130;28;20035;-67
2022/12/05 05:18:56;;;;;;;;;;;;;;;3.39;100.00;101611.88;5076816;28;20035;-67
2022/12/05 05:21:29;;;;;;;44.40;25.40;;;;;;;3.34;100.00;101610.50;5092902;28;19912;-67
2022/12/05 05:23:56;;;;;;;44.53;27.25;;;;;;;3.34;100.00;101623.88;5097958;28;20027;-67
2022/12/05 05:26:22;;;;;;;44.40;27.65;;;;;;;3.36;100.00;101613.00;5117510;28;20028;-69
2022/12/05 05:28:49;;;;;;;41.42;26.52;;;;;;;3.37;100.00;101617.38;5105204;28;20102;-68
2022/12/05 05:31:15;;;;;;;44.20;26.48;;;;;;;3.37;100.00;101618.22;5072330;28;20444;-68
2022/12/05 05:33:41;;;;;;;45.50;28.05;;;;;;;3.36;100.00;101605.00;5070333;28;20116;-67
2022/12/05 05:36:13;;;;;;;46.47;27.65;;;;;;;3.39;100.00;101607.34;5072194;28;20052;-69
2022/12/05 05:38:51;;;;;;;45.60;26.42;;;;;;;3.41;100.00;101607.19;5070422;28;20475;-68
2022/12/05 05:41:17;;;;;;;40.35;26.10;;;;;;;3.39;100.00;101606.53;5072177;28;20026;-68
2022/12/05 05:43:43;;;;;;;45.38;27.10;;;;;;;3.44;100.00;101606.88;5072309;28;20101;-68
2022/12/05 05:46:10;;;;;;;42.90;27.08;;;;;;;3.45;100.00;101613.91;5069815;28;20021;-68
2022/12/05 05:48:35;;;;;;;42.97;26.13;;;;;;;3.48;100.00;101606.38;5064041;28;20047;-68
2022/12/05 05:51:02;;;;;;;42.83;27.40;;;;;;;3.46;100.00;101618.28;5051792;28;20029;-68
2022/12/05 05:53:27;;;;;;;39.88;25.45;;;;;;;3.44;100.00;101614.91;5050749;28;20127;-68
2022/12/05 05:55:52;;;;;;;39.80;26.08;;;;;;;3.45;100.00;101625.44;5051713;28;20477;-68
2022/12/05 05:58:17;;;;;;;41.80;25.33;;;;;;;3.46;100.00;101616.44;5055323;28;20544;-68
2022/12/05 06:00:43;;;;;;;39.35;24.38;;;;;;;3.47;100.00;101617.25;5069581;28;20034;-68
2022/12/05 06:03:08;;;;;;;42.50;25.52;;;;;;;3.48;100.00;101622.44;5052132;28;20040;-68
2022/12/05 06:05:35;;;;;;;40.35;24.83;;;;;;;3.49;100.00;101620.63;5054008;28;20033;-71
2022/12/05 06:08:01;;;;;;;37.35;24.35;;;;;;;3.50;100.00;101632.97;5068500;28;20043;-68
2022/12/05 06:10:28;;;;;;;40.00;25.98;;;;;;;3.51;100.00;101623.97;5070249;28;20036;-68
2022/12/05 06:12:53;;;;;;;38.70;25.02;;;;;;;3.52;100.00;101625.66;5071685;28;20039;-68
2022/12/05 06:15:19;;;;;;;40.20;25.00;;;;;;;3.55;100.00;101620.81;5075194;28;20032;-68
2022/12/05 06:17:44;;;;;;;40.67;25.00;;;;;;;3.58;100.00;101625.03;5073556;28;20448;-67
2022/12/05 06:20:10;;;;;;;37.78;23.83;;;;;;;3.61;100.00;101630.06;5073967;28;20029;-68
2022/12/05 06:22:35;;;;;;;38.67;23.77;;;;;;;3.60;100.00;101628.38;5075347;28;20029;-68
2022/12/05 06:25:00;;;;;;;36.90;24.27;;;;;;;3.59;100.00;101624.00;5075100;28;20119;-68
2022/12/05 06:27:29;;;;;;;37.63;24.30;;;;;;;3.61;100.00;101630.06;5075235;28;20456;-68
2022/12/05 06:29:54;;;;;;;36.80;23.98;;;;;;;3.61;100.00;101638.06;5073161;28;20036;-68
2022/12/05 06:32:19;;;;;;;35.83;22.88;;;;;;;3.61;100.00;101630.06;5083242;28;20032;-68
2022/12/05 06:34:44;;;;;;;39.17;25.38;;;;;;;3.60;100.00;101631.03;5074803;28;20521;-68
2022/12/05 06:37:10;;;;;;;40.22;23.88;;;;;;;3.62;100.00;101628.19;5074763;28;20048;-68
2022/12/05 06:39:35;;;;;;;40.03;24.40;;;;;;;3.64;100.00;101627.06;5071359;28;20063;-68
2022/12/05 06:42:01;;;;;;;34.05;23.23;;;;;;;3.64;100.00;101635.09;5074787;28;20028;-68
2022/12/05 06:44:27;;;;;;;36.30;24.00;;;;;;;3.65;100.00;101633.22;5075006;28;20037;-68
2022/12/05 06:46:53;;;;;;;36.20;23.75;;;;;;;3.67;100.00;101639.28;5073435;28;20384;-68
2022/12/05 06:49:20;;;;;;;36.90;23.67;;;;;;;3.67;100.00;101634.75;5072987;28;20064;-68
2022/12/05 06:51:45;;;;;;;37.53;23.98;;;;;;;3.68;100.00;101632.91;5075493;28;20035;-68
2022/12/05 06:54:11;;;;;;;35.40;23.88;;;;;;;3.68;100.00;101641.81;5074577;28;20040;-68
2022/12/05 06:56:37;;;;;;;39.20;23.83;;;;;;;3.69;100.00;101639.94;5074482;28;20035;-68
2022/12/05 06:59:03;;;;;;;35.55;22.90;;;;;;;3.68;100.00;101640.94;5072486;28;20024;-68
2022/12/05 07:01:37;;;;;;;35.80;22.50;;;;;;;3.72;100.00;101639.63;5069061;28;20119;-68
2022/12/05 07:04:23;;;;;;;38.28;22.50;;;;;;;3.72;100.00;101639.63;5074536;28;20024;-68
2022/12/05 07:06:50;;;;;;;36.33;22.63;;;;;;;3.73;100.00;101646.66;5067117;28;20056;-68
2022/12/05 07:09:18;;;;;;;38.78;23.23;;;;;;;3.75;100.00;101651.88;5074516;28;20036;-68
2022/12/05 07:11:47;;;;;;;35.75;23.00;;;;;;;3.72;100.00;101653.84;5078972;28;20438;-68
2022/12/05 07:14:12;;;;;;;34.05;22.92;;;;;;;3.73;100.00;101650.19;5094649;28;20069;-68
2022/12/05 07:16:37;;;;;;;34.10;22.60;;;;;;;3.76;100.00;101658.88;5072214;28;20048;-68
2022/12/05 07:19:02;;;;;;;34.72;22.85;;;;;;;3.75;100.00;101657.22;5074066;28;20060;-69
2022/12/05 07:21:28;;;;;;;34.95;22.75;;;;;;;3.75;100.00;101667.94;5074253;28;20025;-68
2022/12/05 07:23:54;;;;;;;31.20;21.52;;;;;;;3.76;100.00;101669.59;5073617;28;20029;-68
2022/12/05 07:26:22;;;;;;;30.58;20.15;;;;;;;3.76;100.00;101674.94;5072134;28;20043;-68
2022/12/05 07:28:49;;;;;;;31.02;21.05;;;;;;;3.75;100.00;101675.97;5074131;28;20476;-68
2022/12/05 07:31:17;;;;;;;31.23;20.85;;;;;;;3.73;100.00;101678.78;5057694;28;20037;-68
2022/12/05 07:33:43;;;;;;;32.15;20.55;;;;;;;3.76;100.00;101680.28;5057759;28;20033;-68
2022/12/05 07:36:14;;;;;;;33.60;22.35;;;;;;;3.73;100.00;101679.63;5082183;28;20036;-68
2022/12/05 07:38:41;;;;;;;35.15;21.27;;;;;;;3.75;100.00;101684.81;5089883;28;20075;-68
2022/12/05 07:41:27;;;;;;;31.67;20.25;;;;;;;3.80;100.00;101676.31;5081520;28;20039;-68
2022/12/05 07:43:55;;;;;;;32.72;21.20;;;;;;;3.81;100.00;101683.34;5073582;28;20036;-68
2022/12/05 07:46:20;;;;;;;31.35;20.52;;;;;;;3.79;100.00;101675.47;5068870;28;20037;-68
2022/12/05 07:48:54;;;;;;;33.13;21.13;;;;;;;3.83;100.00;101681.34;5073712;28;20483;-68
2022/12/05 07:51:20;;;;;;;33.85;21.65;;;;;;;3.81;100.00;101678.81;5091387;28;20040;-68
2022/12/05 07:53:46;;;;;;;33.08;22.23;;;;;;;3.82;100.00;101685.00;5077484;28;20529;-68
2022/12/05 07:56:15;;;;;;;28.77;20.63;;;;;;;3.82;100.00;101690.38;5072102;28;20029;-68
2022/12/05 07:58:41;;;;;;;36.05;21.85;;;;;;;3.84;100.00;101686.53;5072158;28;20024;-68
2022/12/05 08:01:09;;;;;;;31.50;21.40;;;;;;;3.80;100.00;101690.53;5056285;28;20068;-68
2022/12/05 08:03:36;;;;;;;34.42;22.67;;;;;;;3.82;100.00;101693.03;5063995;28;20029;-68
2022/12/05 08:06:07;;;;;;;34.75;21.15;;;;;;;3.83;100.00;101687.53;5071168;28;20116;-68
2022/12/05 08:08:32;;;;;;;32.72;20.52;;;;;;;3.87;100.00;101698.78;5071766;28;20040;-68
2022/12/05 08:11:03;;;;;;;32.92;21.45;;;;;;;3.86;100.00;101691.72;5071616;28;20021;-68
2022/12/05 08:13:29;;;;;;;34.15;21.02;;;;;;;3.88;100.00;101695.94;5071164;28;20031;-68
2022/12/05 08:15:54;;;;;;;30.13;21.02;;;;;;;3.88;100.00;101703.09;5056604;28;20041;-68
2022/12/05 08:18:19;;;;;;;31.58;21.85;;;;;;;3.87;100.00;101713.00;5051961;28;20028;-68
2022/12/05 08:20:45;;;;;;;32.92;20.65;;;;;;;3.90;100.00;101709.16;5053215;28;20036;-68
2022/12/05 08:23:10;;;;;;;30.02;19.25;;;;;;;3.92;100.00;101707.16;5058850;28;20031;-68
2022/12/05 08:25:35;;;;;;;28.42;20.83;;;;;;;3.92;100.00;101712.50;5073023;28;20029;-68
2022/12/05 08:28:00;;;;;;;32.60;22.08;;;;;;;3.93;100.00;101724.91;5072752;28;20032;-68
2022/12/05 08:30:26;;;;;;;30.55;21.60;;;;;;;3.90;100.00;101720.69;5071933;28;20385;-68
2022/12/05 08:32:51;;;;;;;35.28;22.30;;;;;;;3.93;100.00;101716.88;5070990;28;20028;-68
2022/12/05 08:35:16;;;;;;;32.92;20.65;;;;;;;3.93;100.00;101726.75;5071066;28;20056;-69
2022/12/05 08:37:42;;;;;;;31.35;19.88;;;;;;;3.93;100.00;101722.22;5072248;28;20127;-68
2022/12/05 08:40:07;;;;;;;31.70;20.02;;;;;;;3.97;100.00;101726.28;5072674;28;20032;-68
2022/12/05 08:42:33;;;;;;;30.88;20.67;;;;;;;3.98;100.00;101733.28;5071332;28;20083;-69
2022/12/05 08:44:58;;;;;;;28.55;19.20;;;;;;;3.98;100.00;101732.47;5071231;28;20055;-69
2022/12/05 08:47:23;;;;;;;30.88;21.60;;;;;;;3.98;100.00;101732.47;5071988;28;20024;-69
2022/12/05 08:49:48;;;;;;;32.22;20.70;;;;;;;3.98;100.00;101721.75;5072806;28;20375;-72
2022/12/05 08:52:14;;;;;;;197.07;100.32;;;;;;;4.00;100.00;101719.75;5071567;28;20028;-70
2022/12/05 08:54:39;;;;;;;249.80;135.50;;;;;;;4.04;100.00;101727.28;5071945;28;20379;-71
2022/12/05 08:57:37;;;;;;;65.50;41.33;;;;;;;4.08;100.00;101725.97;5081386;28;20024;-73
2022/12/05 09:00:04;;;;;;;53.08;36.70;;;;;;;4.07;100.00;101735.00;5052484;28;20499;-69
2022/12/05 09:02:30;;;;;;;195.20;109.15;;;;;;;4.05;100.00;101734.34;5050584;28;20029;-71
2022/12/05 09:04:55;;;;;;;77.80;52.95;;;;;;;4.06;100.00;101736.03;5071646;28;20435;-73
2022/12/05 09:07:20;;;;;;;65.50;44.78;;;;;;;4.06;100.00;101743.19;5070891;28;20053;-69
2022/12/05 09:09:46;;;;;;;44.13;30.77;;;;;;;4.04;100.00;101740.69;5072706;28;20040;-69
2022/12/05 09:12:12;;;;;;;30.70;22.67;;;;;;;4.01;100.00;101745.53;5072288;28;20103;-69
2022/12/05 09:14:37;;;;;;;37.45;24.85;;;;;;;4.03;100.00;101744.38;5070440;28;20468;-69
2022/12/05 09:17:03;;;;;;;38.45;24.50;;;;;;;4.05;100.00;101749.59;5072353;28;20028;-72
2022/12/05 09:19:30;;;;;;;36.60;25.00;;;;;;;4.05;100.00;101755.75;5072552;28;20075;-69
2022/12/05 09:21:56;;;;;;;34.65;24.90;;;;;;;4.10;100.00;101754.44;5070141;28;20032;-69
2022/12/05 09:24:22;;;;;;;32.67;22.85;;;;;;;4.05;100.00;101761.13;5070521;28;20090;-68
2022/12/05 09:26:47;;;;;;;30.55;22.15;;;;;;;4.08;100.00;101757.28;5071171;28;20024;-69
2022/12/05 09:29:13;;;;;;;35.25;24.70;;;;;;;4.07;100.00;101760.97;5070918;28;20039;-69
2022/12/05 09:31:41;;;;;;;33.60;22.02;;;;;;;4.08;100.00;101768.00;5072171;28;20032;-69
2022/12/05 09:34:07;;;;;;;35.75;25.15;;;;;;;4.11;100.00;101766.81;5066817;28;20036;-69
2022/12/05 09:36:33;;;;;;;32.78;21.83;;;;;;;4.12;100.00;101771.19;5065796;28;20102;-69
2022/12/05 09:39:04;;;;;;;36.35;22.70;;;;;;;4.12;100.00;101771.19;5052322;28;20025;-69
2022/12/05 09:44:56;;;;;;;32.38;22.33;;;;;;;4.19;100.00;101770.38;5067341;28;20502;-69
2022/12/05 09:47:39;;;;;;;33.83;21.80;;;;;;;4.21;100.00;101770.22;5071949;28;20052;-69
2022/12/05 09:50:17;;;;;;;27.75;19.85;;;;;;;4.23;100.00;101774.44;5075332;28;20036;-69
2022/12/05 09:53:02;;;;;;;28.40;20.08;;;;;;;4.24;100.00;101777.94;5059401;28;20021;-69
2022/12/05 09:55:36;;;;;;;32.15;22.23;;;;;;;4.24;100.00;101775.28;5076149;28;20047;-71
2022/12/05 09:58:04;;;;;;;29.48;19.33;;;;;;;4.22;100.00;101774.59;5076786;28;20032;-70
2022/12/05 10:00:31;;;;;;;27.10;19.08;;;;;;;4.23;100.00;101779.78;5085059;28;20036;-70
2022/12/05 10:03:25;;;;;;;27.83;19.70;;;;;;;4.27;100.00;101772.25;5092243;28;20031;-69
2022/12/05 10:06:13;;;;;;;25.48;17.83;;;;;;;4.30;100.00;101779.16;5095723;28;20044;-71
2022/12/05 10:09:11;;;;;;;22.90;16.25;;;;;;;4.25;100.00;101774.28;5075927;28;20597;-70
2022/12/05 10:12:00;;;;;;;26.42;17.13;;;;;;;4.27;100.00;101780.31;5074079;28;20080;-71
2022/12/05 10:14:41;;;;;;;24.70;18.00;;;;;;;4.28;100.00;101779.31;5074003;28;20107;-69
2022/12/05 10:17:19;;;;;;;23.55;16.02;;;;;;;4.28;100.00;101771.28;5075028;28;20440;-69
2022/12/05 10:19:48;;;;;;;23.15;15.10;;;;;;;4.31;100.00;101770.94;5074639;28;20032;-71
2022/12/05 10:22:21;;;;;;;22.15;15.88;;;;;;;4.31;100.00;101770.94;5073981;28;20036;-70
2022/12/05 10:24:59;;;;;;;24.85;15.63;;;;;;;4.30;100.00;101774.63;5074148;28;20037;-71
2022/12/05 10:27:41;;;;;;;23.73;16.95;;;;;;;4.35;100.00;101768.78;5055155;28;20473;-73
2022/12/05 10:30:15;;;;;;;21.33;15.60;;;;;;;4.42;100.00;101767.13;5055020;28;20025;-74
2022/12/05 10:32:57;;;;;;;22.73;15.80;;;;;;;4.46;100.00;101773.88;5055180;28;20040;-72
2022/12/05 10:35:31;;;;;;;21.40;14.18;;;;;;;4.41;100.00;101770.84;5075228;28;20108;-74
2022/12/05 10:37:59;;;;;;;21.10;14.35;;;;;;;4.40;100.00;101774.50;5075478;28;20123;-81
2022/12/05 10:40:32;;;;;;;23.55;14.88;;;;;;;4.41;100.00;101774.34;5073566;28;20111;-77
2022/12/05 10:42:57;;;;;;;22.23;15.25;;;;;;;4.43;100.00;101771.50;5073246;28;20025;-73
2022/12/05 10:45:23;;;;;;;21.25;15.25;;;;;;;4.42;100.00;101773.34;5074687;28;20025;-74
2022/12/05 10:47:52;;;;;;;20.88;14.82;;;;;;;4.44;100.00;101775.88;5074948;28;20353;-72
2022/12/05 10:50:31;;;;;;;18.77;12.93;;;;;;;4.44;100.00;101771.34;5075018;28;20039;-73
2022/12/05 10:52:59;;;;;;;20.67;14.68;;;;;;;4.44;100.00;101775.88;5073058;28;20029;-70
2022/12/05 10:55:33;;;;;;;18.83;12.75;;;;;;;4.43;100.00;101780.38;5069819;28;20538;-71
2022/12/05 10:58:11;;;;;;;19.15;13.57;;;;;;;4.44;100.00;101776.69;5075114;28;20033;-71
2022/12/05 11:00:43;;;;;;;21.08;13.70;;;;;;;4.42;100.00;101776.03;5072151;28;20081;-72
2022/12/05 11:03:29;;;;;;;18.02;12.68;;;;;;;4.47;100.00;101772.00;5072727;28;20039;-72
2022/12/05 11:06:14;;;;;;;20.00;13.43;;;;;;;4.46;100.00;101773.88;5074185;28;20499;-70
2022/12/05 11:08:40;;;;;;;20.73;12.43;;;;;;;4.45;100.00;101772.16;5074921;28;20067;-72
2022/12/05 11:11:17;;;;;;;18.38;12.90;;;;;;;4.45;100.00;101772.16;5073251;28;20105;-72
2022/12/05 11:14:03;;;;;;;18.70;13.32;;;;;;;4.52;100.00;101767.03;5073111;28;20060;-72
2022/12/05 11:16:33;;;;;;;20.00;12.93;;;;;;;4.48;100.00;101769.16;5073224;28;20059;-72
2022/12/05 11:19:23;;;;;;;16.55;12.38;;;;;;;4.52;100.00;101767.84;5055331;28;20055;-72
2022/12/05 11:21:49;;;;;;;16.95;12.68;;;;;;;4.51;100.00;101763.47;5054421;28;20116;-72
2022/12/05 11:24:35;;;;;;;18.35;13.15;;;;;;;4.55;100.00;101764.84;5055954;28;20515;-73
2022/12/05 11:27:15;;;;;;;17.98;12.90;;;;;;;4.57;100.00;101768.19;5071935;28;20034;-70
2022/12/05 11:29:43;;;;;;;17.42;12.77;;;;;;;4.56;100.00;101760.31;5073903;28;20039;-69
2022/12/05 11:32:26;;;;;;;16.38;12.55;;;;;;;4.54;100.00;101754.28;5072802;28;20032;-70